Time;durP1;ratioP1;P1;durP2;ratioP2;P2;SDS_P1;SDS_P2;PMS_P1;PMS_P2;Temp;Humidity;BMP_temperature;BMP_pressure;BME280_temperature;BME280_humidity;BME280_pressure;Samples;Min_cycle;Max_cycle;Signal;HPM_P1;HPM_P2
2023/06/09 00:00:57;;;;;;;9.03;7.63;;;21.30;67.80;;;;;;4973694;28;20440;-49
2023/06/09 00:03:25;;;;;;;8.93;6.77;;;21.30;68.00;;;;;;4972229;28;20868;-48
2023/06/09 00:05:53;;;;;;;7.23;6.33;;;21.20;68.00;;;;;;4973659;28;20476;-46
2023/06/09 00:08:20;;;;;;;6.17;5.57;;;21.20;68.00;;;;;;4973265;28;20478;-48
2023/06/09 00:10:47;;;;;;;8.80;7.40;;;21.10;67.80;;;;;;4973232;28;20481;-48
2023/06/09 00:13:15;;;;;;;7.97;6.40;;;21.10;67.80;;;;;;4973769;28;20862;-48
2023/06/09 00:15:43;;;;;;;9.33;7.00;;;21.10;68.00;;;;;;4973525;28;20473;-48
2023/06/09 00:18:14;;;;;;;10.03;7.87;;;21.00;67.90;;;;;;4973077;28;20855;-48
2023/06/09 00:20:41;;;;;;;8.33;7.53;;;21.00;68.00;;;;;;4972311;28;20464;-48
2023/06/09 00:23:08;;;;;;;12.03;7.70;;;21.00;68.10;;;;;;4973838;28;20785;-48
2023/06/09 00:25:35;;;;;;;9.43;7.33;;;20.90;68.30;;;;;;4974007;28;20846;-49
2023/06/09 00:28:02;;;;;;;10.10;7.57;;;20.90;68.30;;;;;;4973633;28;20817;-49
2023/06/09 00:30:28;;;;;;;10.87;8.30;;;20.90;68.50;;;;;;4972456;28;21099;-49
2023/06/09 00:32:56;;;;;;;12.30;8.07;;;20.90;68.50;;;;;;4973762;28;20428;-49
2023/06/09 00:35:24;;;;;;;11.97;8.67;;;20.90;68.70;;;;;;4973363;28;20444;-49
2023/06/09 00:37:51;;;;;;;9.27;7.77;;;20.80;68.90;;;;;;4973057;28;20981;-49
2023/06/09 00:40:20;;;;;;;11.37;8.10;;;20.80;69.00;;;;;;4971878;28;20462;-49
2023/06/09 00:42:47;;;;;;;11.93;9.57;;;20.70;69.10;;;;;;4956105;28;20770;-49
2023/06/09 00:45:14;;;;;;;11.43;8.00;;;20.80;69.50;;;;;;4973311;28;20418;-48
2023/06/09 00:47:41;;;;;;;11.73;9.10;;;20.70;69.70;;;;;;4971739;28;20465;-48
2023/06/09 00:50:12;;;;;;;10.73;9.57;;;20.70;69.90;;;;;;4971537;28;20475;-48
2023/06/09 00:52:39;;;;;;;11.63;9.97;;;20.60;70.00;;;;;;4973181;28;20423;-48
2023/06/09 00:55:07;;;;;;;14.30;10.47;;;20.60;70.20;;;;;;4973104;28;20436;-48
2023/06/09 00:57:33;;;;;;;10.70;8.97;;;20.50;70.30;;;;;;4972999;28;20457;-48
2023/06/09 01:00:04;;;;;;;10.67;8.40;;;20.50;70.60;;;;;;4972654;28;20504;-48
2023/06/09 01:02:31;;;;;;;10.73;7.60;;;20.50;71.70;;;;;;4972915;28;20425;-48
2023/06/09 01:04:58;;;;;;;12.67;8.20;;;20.40;71.90;;;;;;4972922;28;20439;-48
2023/06/09 01:07:38;;;;;;;11.67;7.90;;;20.40;72.20;;;;;;4975645;28;20433;-47
2023/06/09 01:10:10;;;;;;;8.67;7.77;;;20.40;72.60;;;;;;4958901;28;20468;-48
2023/06/09 01:12:46;;;;;;;11.03;7.43;;;20.30;73.10;;;;;;4976738;28;20541;-48
2023/06/09 01:15:18;;;;;;;8.47;7.67;;;20.30;73.20;;;;;;4976658;28;20445;-47
2023/06/09 01:17:48;;;;;;;11.20;7.53;;;19.80;72.70;;;;;;4976549;28;20894;-47
2023/06/09 01:20:19;;;;;;;11.10;8.23;;;20.20;73.50;;;;;;4976302;28;20438;-47
2023/06/09 01:23:04;;;;;;;10.40;8.10;;;20.20;73.90;;;;;;4976568;28;20427;-48
2023/06/09 01:25:35;;;;;;;9.60;8.40;;;20.20;74.20;;;;;;4976559;28;20459;-48
2023/06/09 01:28:05;;;;;;;8.73;7.63;;;20.10;74.30;;;;;;4975026;28;20474;-48
2023/06/09 01:30:34;;;;;;;8.50;7.30;;;20.10;74.50;;;;;;4974954;28;20541;-48
2023/06/09 01:33:06;;;;;;;12.63;8.10;;;20.10;74.60;;;;;;4974937;28;20878;-48
2023/06/09 01:35:34;;;;;;;11.83;8.27;;;20.10;75.00;;;;;;4958959;28;20447;-49
2023/06/09 01:38:03;;;;;;;10.10;7.60;;;20.00;74.90;;;;;;4974801;28;20470;-47
2023/06/09 01:40:32;;;;;;;7.67;6.97;;;20.00;75.30;;;;;;4975940;28;20434;-48
2023/06/09 01:43:00;;;;;;;9.07;7.67;;;20.00;75.60;;;;;;4974884;28;20867;-48
2023/06/09 01:45:27;;;;;;;10.67;7.63;;;20.20;76.10;;;;;;4975072;28;20806;-48
2023/06/09 01:47:54;;;;;;;9.70;8.57;;;19.90;76.00;;;;;;4958684;28;20822;-48
2023/06/09 01:50:32;;;;;;;11.27;8.10;;;19.90;76.30;;;;;;4975580;28;20451;-48
2023/06/09 01:53:05;;;;;;;13.33;8.30;;;19.80;76.70;;;;;;4974412;28;21019;-48
2023/06/09 01:55:36;;;;;;;19.03;8.67;;;19.80;77.20;;;;;;4974585;28;20450;-48
2023/06/09 01:58:10;;;;;;;11.70;8.83;;;19.70;77.10;;;;;;4974269;28;20478;-48
2023/06/09 02:00:38;;;;;;;11.53;9.07;;;19.70;77.40;;;;;;4974278;28;20545;-48
2023/06/09 02:03:07;;;;;;;9.60;8.60;;;19.60;77.30;;;;;;4975748;28;20441;-48
2023/06/09 02:05:37;;;;;;;13.07;8.80;;;19.70;77.70;;;;;;4974458;28;20429;-48
2023/06/09 02:08:05;;;;;;;16.50;9.30;;;19.70;77.80;;;;;;4975397;28;20450;-48
2023/06/09 02:10:33;;;;;;;10.30;8.63;;;19.60;77.90;;;;;;4973992;28;20478;-48
2023/06/09 02:13:12;;;;;;;10.97;9.60;;;19.70;78.10;;;;;;4974168;28;21027;-48
2023/06/09 02:15:38;;;;;;;11.07;8.17;;;19.60;78.50;;;;;;4975413;28;20434;-48
2023/06/09 02:18:05;;;;;;;9.60;8.60;;;19.30;78.30;;;;;;4973545;28;20610;-48
2023/06/09 02:20:32;;;;;;;10.97;9.73;;;19.50;78.70;;;;;;4974000;28;20509;-48
2023/06/09 02:22:59;;;;;;;14.83;8.67;;;19.40;78.60;;;;;;4975172;28;20446;-48
2023/06/09 02:25:28;;;;;;;10.30;8.97;;;19.40;78.70;;;;;;4973996;28;20902;-48
2023/06/09 02:27:56;;;;;;;10.33;9.30;;;19.00;78.20;;;;;;4975159;28;20468;-48
2023/06/09 02:30:22;;;;;;;11.30;9.43;;;19.40;78.90;;;;;;4973399;28;20825;-48
2023/06/09 02:32:49;;;;;;;10.30;9.00;;;19.20;78.70;;;;;;4975085;28;20995;-48
2023/06/09 02:35:16;;;;;;;10.17;8.40;;;19.30;78.90;;;;;;4973743;28;20950;-48
2023/06/09 02:37:43;;;;;;;11.40;8.20;;;19.30;79.00;;;;;;4973563;28;20470;-48
2023/06/09 02:40:10;;;;;;;14.03;8.30;;;19.20;78.90;;;;;;4973287;28;20464;-48
2023/06/09 02:42:38;;;;;;;11.93;7.80;;;19.30;79.10;;;;;;4973638;28;20420;-48
2023/06/09 02:45:07;;;;;;;8.13;7.43;;;19.30;79.20;;;;;;4974736;28;20442;-48
2023/06/09 02:47:34;;;;;;;9.37;8.40;;;19.30;79.10;;;;;;4973307;28;21010;-48
2023/06/09 02:50:01;;;;;;;10.80;8.20;;;19.10;78.90;;;;;;4973208;28;20467;-48
2023/06/09 02:52:28;;;;;;;12.90;7.93;;;19.10;78.90;;;;;;4973294;28;20496;-48
2023/06/09 02:54:56;;;;;;;9.90;8.50;;;19.30;79.10;;;;;;4973258;28;20483;-48
2023/06/09 02:57:23;;;;;;;10.50;8.33;;;19.20;79.10;;;;;;4973240;28;21057;-48
2023/06/09 02:59:49;;;;;;;10.50;8.00;;;19.20;79.10;;;;;;4973152;28;20450;-48
2023/06/09 03:02:18;;;;;;;12.80;9.13;;;19.10;79.10;;;;;;4973136;28;20950;-48
2023/06/09 03:04:45;;;;;;;10.10;8.80;;;19.10;79.10;;;;;;4973239;28;20958;-48
2023/06/09 03:07:13;;;;;;;10.87;8.83;;;19.10;79.50;;;;;;4973105;28;20557;-47
2023/06/09 03:09:40;;;;;;;10.00;8.20;;;19.20;79.80;;;;;;4972878;28;20511;-47
2023/06/09 03:12:10;;;;;;;11.03;8.70;;;19.10;79.80;;;;;;4972996;28;20994;-48
2023/06/09 03:14:37;;;;;;;14.00;8.10;;;19.00;80.00;;;;;;4972936;28;20465;-48
2023/06/09 03:17:05;;;;;;;10.87;8.70;;;19.00;80.10;;;;;;4972811;28;20451;-47
2023/06/09 03:19:34;;;;;;;11.03;8.80;;;19.00;80.20;;;;;;4972544;28;20454;-48
2023/06/09 03:22:03;;;;;;;15.13;9.53;;;18.80;80.10;;;;;;4974784;28;20454;-48
2023/06/09 03:24:34;;;;;;;9.60;8.60;;;19.00;80.30;;;;;;4972964;28;20533;-48
2023/06/09 03:27:01;;;;;;;9.30;8.40;;;18.70;80.10;;;;;;4972783;28;20565;-48
2023/06/09 03:29:30;;;;;;;12.03;8.50;;;19.10;80.60;;;;;;4971892;28;20536;-48
2023/06/09 03:31:58;;;;;;;10.63;9.37;;;19.30;81.10;;;;;;4972661;28;20510;-48
2023/06/09 03:34:25;;;;;;;14.70;9.07;;;18.60;80.40;;;;;;4973359;28;20821;-49
2023/06/09 03:36:56;;;;;;;16.03;9.80;;;19.20;81.20;;;;;;4972786;28;20478;-47
2023/06/09 03:39:23;;;;;;;10.20;9.17;;;18.80;81.00;;;;;;4972749;28;20449;-48
2023/06/09 03:41:53;;;;;;;12.30;8.93;;;18.90;81.30;;;;;;4973029;28;21050;-48
2023/06/09 03:44:22;;;;;;;13.73;9.67;;;18.90;81.60;;;;;;4974180;28;20788;-48
2023/06/09 03:46:49;;;;;;;10.60;8.87;;;18.90;81.80;;;;;;4972448;28;20531;-48
2023/06/09 03:49:16;;;;;;;11.83;9.10;;;18.80;82.20;;;;;;4972191;28;20464;-47
2023/06/09 03:51:44;;;;;;;14.77;9.13;;;18.50;82.10;;;;;;4972714;28;20998;-47
2023/06/09 03:54:12;;;;;;;10.00;9.00;;;18.80;82.60;;;;;;4972802;28;20462;-47
2023/06/09 03:56:39;;;;;;;10.03;8.80;;;18.80;82.90;;;;;;4972613;28;20842;-47
2023/06/09 03:59:06;;;;;;;13.20;9.47;;;18.60;82.60;;;;;;4972287;28;20542;-48
2023/06/09 04:01:33;;;;;;;12.83;9.20;;;18.60;82.60;;;;;;4972457;28;20508;-47
2023/06/09 04:04:00;;;;;;;14.70;9.50;;;18.80;82.90;;;;;;4972547;28;20508;-48
2023/06/09 04:06:28;;;;;;;11.87;10.20;;;18.90;82.80;;;;;;4972754;28;20500;-48
2023/06/09 04:08:56;;;;;;;10.23;9.17;;;18.90;82.50;;;;;;4955956;28;20441;-48
2023/06/09 04:11:24;;;;;;;12.93;8.73;;;18.90;82.00;;;;;;4972331;28;20485;-48
2023/06/09 04:13:52;;;;;;;10.20;8.93;;;19.00;81.80;;;;;;4973330;28;20807;-48
2023/06/09 04:16:19;;;;;;;12.80;9.40;;;18.70;80.90;;;;;;4972613;28;20570;-48
2023/06/09 04:18:46;;;;;;;11.20;8.53;;;19.20;81.00;;;;;;4973670;28;20414;-48
2023/06/09 04:21:14;;;;;;;10.83;8.80;;;19.20;81.00;;;;;;4974008;28;20887;-48
2023/06/09 04:23:40;;;;;;;8.60;7.67;;;19.40;79.60;;;;;;4973145;28;20992;-48
2023/06/09 04:26:08;;;;;;;11.00;7.87;;;19.50;79.30;;;;;;4973229;28;20531;-48
2023/06/09 04:28:38;;;;;;;9.63;8.60;;;19.50;78.50;;;;;;4972786;28;20899;-48
2023/06/09 04:31:06;;;;;;;10.17;8.30;;;19.60;78.00;;;;;;4973150;28;20520;-49
2023/06/09 04:33:36;;;;;;;10.33;8.10;;;19.60;77.50;;;;;;4972922;28;20460;-48
2023/06/09 04:36:03;;;;;;;13.60;8.20;;;19.40;76.60;;;;;;4972619;28;20837;-48
2023/06/09 04:38:32;;;;;;;12.50;8.70;;;19.90;76.70;;;;;;4972478;28;20827;-49
2023/06/09 04:41:01;;;;;;;15.13;8.63;;;19.90;76.00;;;;;;4972602;28;20831;-49
2023/06/09 04:43:32;;;;;;;9.10;8.00;;;20.00;74.90;;;;;;4975978;28;20812;-49
2023/06/09 04:46:05;;;;;;;8.70;7.40;;;20.10;74.10;;;;;;4975697;28;20448;-49
2023/06/09 04:48:35;;;;;;;8.40;7.57;;;20.10;73.30;;;;;;4975557;28;20474;-49
2023/06/09 04:51:02;;;;;;;7.97;6.73;;;20.10;72.50;;;;;;4976169;28;20825;-49
2023/06/09 04:53:35;;;;;;;7.67;6.87;;;20.10;71.50;;;;;;4976457;28;20458;-49
2023/06/09 04:56:02;;;;;;;6.60;5.90;;;20.00;71.10;;;;;;4976152;28;20453;-48
2023/06/09 04:58:31;;;;;;;9.33;6.80;;;20.00;70.70;;;;;;4975641;28;20466;-49
2023/06/09 05:00:59;;;;;;;9.13;6.30;;;20.20;70.80;;;;;;4977067;28;20425;-47
2023/06/09 05:03:27;;;;;;;9.73;7.03;;;20.20;69.80;;;;;;4975863;28;20425;-47
2023/06/09 05:05:53;;;;;;;8.27;6.17;;;20.10;68.80;;;;;;4976097;28;20458;-47
2023/06/09 05:08:22;;;;;;;6.93;5.73;;;20.40;68.30;;;;;;4975606;28;20470;-48
2023/06/09 05:10:50;;;;;;;6.13;5.50;;;20.50;67.00;;;;;;4975752;28;20441;-49
2023/06/09 05:13:17;;;;;;;7.57;5.83;;;20.60;65.70;;;;;;4975232;28;21036;-48
2023/06/09 05:15:43;;;;;;;9.13;5.57;;;20.70;64.90;;;;;;4975499;28;20516;-48
2023/06/09 05:18:12;;;;;;;6.30;5.70;;;20.80;64.60;;;;;;4974864;28;20833;-48
2023/06/09 05:20:40;;;;;;;7.23;5.07;;;20.90;63.60;;;;;;4974992;28;20488;-48
2023/06/09 05:23:08;;;;;;;7.17;5.20;;;21.00;63.30;;;;;;4975352;28;20879;-48
2023/06/09 05:25:35;;;;;;;9.73;4.87;;;21.10;62.80;;;;;;4975018;28;20460;-49
2023/06/09 05:28:03;;;;;;;8.13;5.17;;;21.20;62.20;;;;;;4974595;28;20506;-48
2023/06/09 05:30:30;;;;;;;7.70;5.27;;;21.20;60.80;;;;;;4974899;28;20459;-48
2023/06/09 05:32:56;;;;;;;9.30;5.53;;;21.30;60.50;;;;;;4974743;28;20578;-48
2023/06/09 05:35:23;;;;;;;6.00;5.40;;;21.40;60.00;;;;;;4974893;28;20449;-48
2023/06/09 05:37:52;;;;;;;8.30;4.20;;;21.50;59.10;;;;;;4975865;28;20518;-48
2023/06/09 05:40:22;;;;;;;7.23;4.80;;;21.50;58.80;;;;;;4957904;28;20524;-49
2023/06/09 05:42:49;;;;;;;6.00;4.43;;;21.60;58.50;;;;;;4975832;28;20441;-48
2023/06/09 05:45:16;;;;;;;6.63;4.30;;;21.60;58.10;;;;;;4975894;28;20797;-48
2023/06/09 05:47:43;;;;;;;9.10;4.60;;;21.60;57.70;;;;;;4990915;23;20508;-49
2023/06/09 05:50:10;;;;;;;9.40;4.60;;;21.70;57.90;;;;;;4994541;28;20448;-51
2023/06/09 05:52:37;;;;;;;5.93;4.67;;;21.60;56.40;;;;;;4994099;28;20483;-49
2023/06/09 05:55:06;;;;;;;11.90;4.50;;;21.40;56.50;;;;;;4994473;28;20427;-52
2023/06/09 05:57:33;;;;;;;26.33;6.53;;;21.60;56.00;;;;;;4994720;28;20885;-49
2023/06/09 06:00:00;;;;;;;7.40;4.87;;;21.60;56.00;;;;;;4994663;28;20526;-49
2023/06/09 06:02:27;;;;;;;7.10;4.53;;;21.70;56.10;;;;;;4994990;28;20453;-49
2023/06/09 06:04:54;;;;;;;6.53;3.87;;;21.70;56.00;;;;;;4994903;28;20440;-51
2023/06/09 06:07:21;;;;;;;7.33;5.33;;;21.80;55.40;;;;;;4994598;28;20983;-49
2023/06/09 06:09:48;;;;;;;9.77;5.20;;;22.00;55.20;;;;;;4994050;28;20441;-48
2023/06/09 06:12:16;;;;;;;39.00;10.27;;;22.00;54.70;;;;;;4994703;28;20872;-49
2023/06/09 06:14:42;;;;;;;12.67;5.63;;;22.20;54.40;;;;;;4994777;28;20527;-51
2023/06/09 06:17:09;;;;;;;7.23;4.50;;;22.30;53.70;;;;;;4994530;28;21060;-49
2023/06/09 06:19:36;;;;;;;5.73;4.20;;;22.50;52.80;;;;;;4994117;28;20531;-49
2023/06/09 06:22:03;;;;;;;6.93;4.60;;;22.60;52.90;;;;;;4994560;28;20883;-51
2023/06/09 06:24:29;;;;;;;6.30;4.87;;;22.60;53.70;;;;;;4994660;28;20435;-49
2023/06/09 06:26:56;;;;;;;7.87;5.00;;;22.60;53.50;;;;;;4994338;28;20468;-50
2023/06/09 06:29:25;;;;;;;8.30;4.60;;;22.60;53.50;;;;;;4994017;28;20440;-53
2023/06/09 06:31:52;;;;;;;7.50;4.77;;;22.60;53.30;;;;;;4976558;28;20452;-49
2023/06/09 06:34:18;;;;;;;13.73;4.97;;;22.70;52.70;;;;;;4994087;28;20441;-49
2023/06/09 06:36:45;;;;;;;8.67;4.63;;;22.80;52.70;;;;;;4994219;28;20495;-51
2023/06/09 06:39:13;;;;;;;5.33;4.30;;;22.80;51.80;;;;;;4994045;28;20492;-49
2023/06/09 06:41:39;;;;;;;6.70;4.17;;;22.80;51.40;;;;;;4994225;28;20438;-51
2023/06/09 06:44:06;;;;;;;8.60;4.40;;;22.90;51.50;;;;;;4994342;28;20840;-49
2023/06/09 06:46:34;;;;;;;8.30;4.93;;;23.00;51.50;;;;;;4993647;28;20441;-49
2023/06/09 06:49:01;;;;;;;8.80;4.63;;;23.00;51.70;;;;;;4976030;28;21000;-49
2023/06/09 06:51:28;;;;;;;7.23;4.13;;;23.00;51.20;;;;;;4993680;28;20443;-49
2023/06/09 06:53:54;;;;;;;5.53;3.80;;;23.10;51.40;;;;;;4993782;28;20487;-48
2023/06/09 06:56:22;;;;;;;8.70;4.10;;;23.20;51.60;;;;;;4993492;28;20431;-51
2023/06/09 06:58:49;;;;;;;5.10;4.00;;;23.30;51.60;;;;;;4993223;28;20463;-50
2023/06/09 07:01:17;;;;;;;5.07;4.37;;;23.30;51.60;;;;;;4975878;28;20459;-51
2023/06/09 07:03:45;;;;;;;9.57;3.97;;;23.40;51.70;;;;;;4992952;28;20439;-51
2023/06/09 07:06:11;;;;;;;6.47;4.17;;;23.40;51.80;;;;;;4993658;28;20435;-48
2023/06/09 07:08:38;;;;;;;6.23;3.83;;;23.50;52.00;;;;;;4993052;28;20554;-48
2023/06/09 07:11:05;;;;;;;7.40;4.43;;;23.40;51.80;;;;;;4994087;28;20435;-49
2023/06/09 07:13:31;;;;;;;7.00;4.40;;;23.50;51.70;;;;;;4993432;28;20528;-52
2023/06/09 07:16:00;;;;;;;10.83;4.23;;;23.50;51.80;;;;;;4993541;28;20792;-49
2023/06/09 07:18:27;;;;;;;5.23;3.30;;;23.60;52.10;;;;;;4993179;28;20460;-49
2023/06/09 07:20:55;;;;;;;7.43;4.10;;;23.60;51.40;;;;;;4993315;28;20927;-50
2023/06/09 07:23:22;;;;;;;5.83;3.90;;;23.60;51.30;;;;;;4975963;28;20482;-51
2023/06/09 07:25:48;;;;;;;6.50;4.47;;;23.60;51.30;;;;;;4993187;28;20474;-50
2023/06/09 07:28:15;;;;;;;5.27;4.17;;;23.60;51.40;;;;;;4992819;28;20445;-49
2023/06/09 07:30:42;;;;;;;7.40;3.90;;;23.60;51.20;;;;;;4993270;28;20435;-51
2023/06/09 07:33:09;;;;;;;4.83;4.00;;;23.60;51.40;;;;;;4993232;28;20519;-48
2023/06/09 07:35:36;;;;;;;4.17;3.77;;;23.60;51.60;;;;;;4975407;28;20459;-51
2023/06/09 07:38:05;;;;;;;6.60;4.17;;;23.40;51.50;;;;;;4993047;28;20907;-49
2023/06/09 07:40:34;;;;;;;5.10;4.30;;;23.60;51.80;;;;;;4993120;28;20930;-50
2023/06/09 07:43:01;;;;;;;7.00;4.40;;;23.60;52.00;;;;;;4975668;28;20457;-49
2023/06/09 07:45:30;;;;;;;8.70;4.00;;;23.60;52.10;;;;;;4975166;28;20465;-49
2023/06/09 07:47:57;;;;;;;6.80;3.90;;;23.60;52.00;;;;;;4993030;28;20481;-50
2023/06/09 07:50:24;;;;;;;4.80;4.10;;;23.60;51.70;;;;;;4992681;28;20449;-48
2023/06/09 07:52:51;;;;;;;4.37;3.47;;;23.70;51.60;;;;;;4975681;28;20556;-50
2023/06/09 07:55:20;;;;;;;7.03;3.57;;;23.80;51.70;;;;;;4992765;28;20447;-50
2023/06/09 07:57:47;;;;;;;4.77;3.77;;;23.90;51.30;;;;;;4974631;28;20445;-52
2023/06/09 08:00:15;;;;;;;5.10;4.07;;;24.20;50.20;;;;;;4975310;28;20540;-48
2023/06/09 08:02:43;;;;;;;4.57;3.70;;;24.70;50.80;;;;;;4992831;28;20525;-53
2023/06/09 08:05:14;;;;;;;4.20;3.37;;;24.20;50.40;;;;;;4975602;28;20456;-49
2023/06/09 08:07:41;;;;;;;4.33;3.60;;;24.30;50.60;;;;;;4992650;28;20460;-49
2023/06/09 08:10:08;;;;;;;8.00;4.10;;;24.50;50.70;;;;;;4992514;28;20468;-50
2023/06/09 08:12:37;;;;;;;7.23;3.70;;;24.30;50.70;;;;;;4992686;28;20488;-49
2023/06/09 08:15:04;;;;;;;6.50;3.60;;;24.40;50.70;;;;;;4992404;28;20769;-50
2023/06/09 08:17:31;;;;;;;7.93;4.17;;;24.40;50.90;;;;;;4992500;28;20460;-49
2023/06/09 08:19:57;;;;;;;8.90;3.37;;;24.50;51.10;;;;;;4992064;28;20437;-51
2023/06/09 08:22:24;;;;;;;13.30;4.83;;;24.60;51.20;;;;;;4992373;28;20448;-50
2023/06/09 08:24:51;;;;;;;4.90;4.30;;;24.60;51.30;;;;;;4992502;28;20451;-51
2023/06/09 08:27:18;;;;;;;6.23;4.27;;;24.70;51.60;;;;;;4992693;28;20465;-48
2023/06/09 08:29:46;;;;;;;5.00;3.77;;;24.60;52.10;;;;;;4992069;28;20439;-48
2023/06/09 08:32:12;;;;;;;7.37;3.90;;;24.30;51.20;;;;;;4992077;28;21035;-48
2023/06/09 08:34:39;;;;;;;5.07;3.97;;;24.50;51.20;;;;;;4992238;28;20441;-48
2023/06/09 08:37:06;;;;;;;9.47;6.30;;;24.50;50.90;;;;;;4992531;28;20456;-50
2023/06/09 08:39:32;;;;;;;6.10;4.67;;;24.50;50.80;;;;;;4992306;28;20432;-48
2023/06/09 08:42:02;;;;;;;5.97;4.20;;;24.50;50.90;;;;;;4989634;28;20531;-48
2023/06/09 08:44:31;;;;;;;5.40;4.17;;;24.60;50.70;;;;;;4984511;28;20464;-48
2023/06/09 08:47:02;;;;;;;7.20;3.97;;;24.30;50.10;;;;;;4991953;28;20469;-49
2023/06/09 08:49:30;;;;;;;9.73;5.20;;;24.80;50.30;;;;;;4970714;28;20471;-48
2023/06/09 08:51:59;;;;;;;6.90;3.80;;;24.90;49.70;;;;;;4965873;28;20457;-50
2023/06/09 08:54:28;;;;;;;8.27;4.07;;;24.90;49.10;;;;;;4974511;28;20481;-50
2023/06/09 08:56:55;;;;;;;4.70;4.30;;;25.00;48.70;;;;;;4991889;28;20555;-50
2023/06/09 08:59:23;;;;;;;6.63;3.90;;;25.00;48.20;;;;;;4991557;28;20511;-53
2023/06/09 09:01:50;;;;;;;7.70;5.77;;;25.10;48.00;;;;;;4974026;28;20549;-51
2023/06/09 09:04:19;;;;;;;8.97;4.30;;;25.20;48.20;;;;;;4991657;28;20441;-49
2023/06/09 09:06:46;;;;;;;4.20;3.20;;;25.20;48.90;;;;;;4991797;28;20444;-49
2023/06/09 09:09:13;;;;;;;4.70;3.70;;;25.40;48.40;;;;;;4991703;28;20440;-49
2023/06/09 09:11:41;;;;;;;11.73;4.20;;;25.50;48.50;;;;;;4991693;28;21087;-48
2023/06/09 09:14:10;;;;;;;11.23;5.00;;;25.60;48.50;;;;;;4974680;28;21011;-49
2023/06/09 09:16:37;;;;;;;9.03;5.57;;;25.70;48.60;;;;;;4968997;28;20458;-51
2023/06/09 09:19:05;;;;;;;10.10;4.70;;;25.70;48.70;;;;;;4986058;28;20433;-49
2023/06/09 09:21:37;;;;;;;7.20;4.53;;;25.80;48.90;;;;;;4973823;28;20481;-49
2023/06/09 09:24:06;;;;;;;5.97;4.03;;;25.90;48.90;;;;;;4991062;28;20500;-49
2023/06/09 09:26:33;;;;;;;8.33;4.50;;;26.00;49.40;;;;;;4973185;28;20454;-51
2023/06/09 09:29:04;;;;;;;7.70;4.97;;;26.00;49.70;;;;;;4994537;28;20989;-50
2023/06/09 09:31:33;;;;;;;9.53;5.50;;;26.00;49.90;;;;;;4995931;28;20456;-50
2023/06/09 09:34:01;;;;;;;5.60;4.07;;;26.00;49.90;;;;;;4971919;28;20485;-49
2023/06/09 09:36:28;;;;;;;9.27;4.43;;;26.10;49.60;;;;;;4964157;28;20461;-49
2023/06/09 09:39:05;;;;;;;7.77;4.90;;;26.00;49.50;;;;;;4957547;28;20929;-50
2023/06/09 09:41:32;;;;;;;8.10;4.70;;;26.00;49.40;;;;;;4976178;28;20422;-53
2023/06/09 09:43:59;;;;;;;7.93;4.80;;;25.90;49.60;;;;;;4972251;28;20449;-49
2023/06/09 09:46:26;;;;;;;4.97;4.13;;;25.90;50.00;;;;;;4989022;28;20521;-51
2023/06/09 09:48:54;;;;;;;9.43;4.90;;;25.90;50.00;;;;;;4986043;28;20943;-47
2023/06/09 09:51:21;;;;;;;6.70;4.57;;;25.90;50.20;;;;;;4994597;28;20808;-49
2023/06/09 09:53:50;;;;;;;5.90;4.27;;;25.80;50.00;;;;;;5010242;28;20937;-50
2023/06/09 09:56:25;;;;;;;6.13;4.50;;;25.80;50.20;;;;;;4977083;28;20976;-50
2023/06/09 09:58:54;;;;;;;9.43;4.63;;;25.80;50.30;;;;;;4994361;28;20460;-49
2023/06/09 10:01:24;;;;;;;7.37;4.60;;;25.80;50.30;;;;;;4973406;28;20463;-50
2023/06/09 10:03:53;;;;;;;8.97;4.40;;;25.80;50.40;;;;;;4984799;28;20436;-49
2023/06/09 10:06:27;;;;;;;6.30;4.20;;;26.00;50.30;;;;;;5014302;28;20444;-50
2023/06/09 10:08:55;;;;;;;13.05;5.50;;;26.00;50.40;;;;;;4983040;28;20798;-54
2023/06/09 10:11:25;;;;;;;7.90;4.93;;;26.40;50.40;;;;;;4976645;28;20261;-50
2023/06/09 10:13:53;;;;;;;8.23;4.43;;;26.30;50.50;;;;;;4960742;28;20505;-52
2023/06/09 10:16:23;;;;;;;5.87;4.63;;;26.30;50.20;;;;;;4994342;28;20440;-53
2023/06/09 10:18:50;;;;;;;5.73;4.17;;;26.30;50.20;;;;;;4988700;28;20496;-49
2023/06/09 10:21:17;;;;;;;9.67;4.83;;;26.30;49.90;;;;;;4988028;28;20524;-52
2023/06/09 10:23:48;;;;;;;8.60;4.50;;;26.40;49.80;;;;;;4993227;28;20433;-52
2023/06/09 10:26:16;;;;;;;5.63;3.87;;;26.40;49.00;;;;;;4976485;28;20874;-49
2023/06/09 10:28:44;;;;;;;5.80;4.23;;;26.40;48.50;;;;;;4983088;28;20465;-50
2023/06/09 10:31:13;;;;;;;6.00;4.50;;;26.50;48.10;;;;;;4988403;28;20450;-50
2023/06/09 10:33:45;;;;;;;6.20;3.70;;;26.60;47.60;;;;;;4974253;28;20457;-48
2023/06/09 10:36:12;;;;;;;5.83;4.17;;;26.60;47.10;;;;;;4982439;28;20461;-50
2023/06/09 10:38:42;;;;;;;6.57;3.70;;;26.60;47.00;;;;;;4971030;28;20535;-50
2023/06/09 10:41:15;;;;;;;5.23;3.87;;;26.80;46.70;;;;;;4991807;28;20807;-50
2023/06/09 10:44:19;;;;;;;5.17;4.60;;;26.90;46.50;;;;;;4991796;28;20442;-50
2023/06/09 10:46:48;;;;;;;5.03;3.87;;;27.00;46.60;;;;;;4984171;28;20524;-48
2023/06/09 10:49:36;;;;;;;8.53;4.43;;;26.90;45.70;;;;;;4988104;28;20456;-52
2023/06/09 10:52:03;;;;;;;4.80;3.80;;;26.90;45.40;;;;;;4971594;28;20468;-54
2023/06/09 10:54:32;;;;;;;6.30;3.70;;;26.90;45.90;;;;;;4980201;28;20895;-50
2023/06/09 10:57:01;;;;;;;14.70;5.50;;;26.80;46.40;;;;;;4978919;28;20466;-52
2023/06/09 11:02:48;;;;;;;5.70;3.80;;;26.80;47.30;;;;;;4991696;28;20457;-50
2023/06/09 11:05:17;;;;;;;7.13;4.67;;;26.80;46.70;;;;;;4960008;28;20442;-53
2023/06/09 11:07:47;;;;;;;6.93;3.80;;;26.80;45.90;;;;;;4992251;28;20468;-50
2023/06/09 11:10:36;;;;;;;5.23;3.90;;;26.80;45.80;;;;;;5008345;28;20456;-50
2023/06/09 11:13:19;;;;;;;7.57;4.53;;;26.80;45.70;;;;;;4982367;28;20847;-49
2023/06/09 11:16:01;;;;;;;9.00;4.70;;;26.80;46.60;;;;;;4960187;28;20450;-49
2023/06/09 11:18:29;;;;;;;4.87;4.37;;;26.90;47.00;;;;;;4992540;28;20536;-50
2023/06/09 11:21:23;;;;;;;7.27;4.20;;;26.80;47.60;;;;;;4963411;28;20457;-51
2023/06/09 11:24:00;;;;;;;6.30;3.67;;;26.80;46.90;;;;;;4976642;28;20433;-52
2023/06/09 11:26:27;;;;;;;5.30;4.50;;;26.90;46.90;;;;;;4992719;28;20523;-50
2023/06/09 11:28:54;;;;;;;7.93;4.60;;;26.90;46.60;;;;;;4980721;28;20454;-49
2023/06/09 11:31:23;;;;;;;4.30;3.93;;;26.90;46.30;;;;;;4971233;28;20527;-50
2023/06/09 11:33:53;;;;;;;6.70;4.20;;;26.90;46.10;;;;;;4976383;28;20475;-50
2023/06/09 11:36:22;;;;;;;4.30;3.90;;;26.90;46.30;;;;;;4985524;28;20950;-51
2023/06/09 11:38:52;;;;;;;6.10;3.93;;;26.90;46.30;;;;;;4984030;28;20457;-50
2023/06/09 11:41:24;;;;;;;7.10;4.27;;;26.90;46.10;;;;;;4977407;28;20454;-51
2023/06/09 11:43:53;;;;;;;6.43;4.33;;;26.90;46.10;;;;;;4992563;28;20457;-50
2023/06/09 11:46:21;;;;;;;5.30;3.80;;;26.90;46.00;;;;;;4985205;28;20528;-51
2023/06/09 11:49:07;;;;;;;4.93;4.43;;;26.90;45.80;;;;;;5042056;23;21021;-49
2023/06/09 11:51:57;;;;;;;5.07;4.40;;;27.00;45.80;;;;;;5030569;28;20531;-50
2023/06/09 11:54:24;;;;;;;5.10;4.20;;;27.00;45.50;;;;;;5019745;28;20558;-49
2023/06/09 11:56:53;;;;;;;6.70;4.90;;;26.70;45.20;;;;;;5020268;28;20441;-50
2023/06/09 11:59:22;;;;;;;5.07;4.43;;;27.00;45.40;;;;;;5007443;28;20491;-50
2023/06/09 12:01:49;;;;;;;9.50;5.33;;;27.00;45.40;;;;;;4978524;28;20498;-50
2023/06/09 12:04:18;;;;;;;9.00;5.00;;;27.00;45.90;;;;;;4988377;28;20458;-50
2023/06/09 12:06:48;;;;;;;5.40;4.10;;;27.10;45.50;;;;;;4986052;28;21011;-50
2023/06/09 12:09:22;;;;;;;4.57;4.17;;;27.10;45.10;;;;;;4979770;28;20501;-49
2023/06/09 12:11:51;;;;;;;7.20;5.00;;;27.10;45.00;;;;;;5009134;28;20802;-50
2023/06/09 12:14:19;;;;;;;5.00;4.50;;;27.10;45.00;;;;;;4982627;28;20478;-50
2023/06/09 12:16:46;;;;;;;4.90;4.40;;;27.10;45.30;;;;;;4984534;28;20460;-51
2023/06/09 12:19:13;;;;;;;5.50;4.27;;;27.10;44.80;;;;;;5006734;28;20831;-50
2023/06/09 12:21:41;;;;;;;7.27;4.43;;;27.20;44.60;;;;;;4992711;28;20545;-51
2023/06/09 12:24:11;;;;;;;5.63;4.47;;;27.20;44.80;;;;;;4997867;28;20445;-49
2023/06/09 12:26:39;;;;;;;4.60;4.00;;;27.20;44.40;;;;;;4984541;28;20455;-49
2023/06/09 12:29:09;;;;;;;5.37;4.40;;;27.20;44.50;;;;;;5005529;28;20468;-50
2023/06/09 12:31:43;;;;;;;4.63;4.13;;;27.20;44.20;;;;;;4977865;28;20455;-49
2023/06/09 12:34:21;;;;;;;6.40;4.73;;;27.20;44.10;;;;;;5005505;28;20515;-49
2023/06/09 12:36:50;;;;;;;5.27;4.33;;;27.20;44.10;;;;;;4985708;28;20964;-49
2023/06/09 12:39:18;;;;;;;6.73;5.60;;;27.20;43.90;;;;;;4978490;28;20461;-49
2023/06/09 12:41:45;;;;;;;5.33;4.80;;;27.20;44.20;;;;;;5007915;28;20444;-50
2023/06/09 12:44:22;;;;;;;4.60;4.13;;;27.30;44.10;;;;;;4998523;28;20460;-50
2023/06/09 12:46:55;;;;;;;4.77;4.37;;;27.30;43.80;;;;;;5000547;28;20537;-49
2023/06/09 12:49:30;;;;;;;6.17;4.53;;;27.40;43.80;;;;;;4988965;28;20494;-51
2023/06/09 12:51:59;;;;;;;6.80;4.30;;;27.40;43.50;;;;;;4995531;28;20492;-49
2023/06/09 12:54:28;;;;;;;6.83;4.30;;;27.40;43.70;;;;;;4985400;28;20504;-49